DLH6YJ LIMC-EDDF
Flight info
| Callsign | DLH6YJ |
|---|---|
| Flight time | 0h 53m |
| Altitude | 32000 |
| Route | PEPAG DCT ABESI N851 UTAVO DCT ROLSA DCT LADOL T163 EMPAX EMPAX5B |
| Aircraft | A320/M-SDE3FGHIRWY/LB1 |
Departure
| Time | 2026-05-04 14:55 |
|---|---|
| Airport | Milan Malpensa International Airport (LIMC) |
Arrival
| Time | 2026-05-04 15:49 |
|---|---|
| Airport | Frankfurt Main Airport (EDDF) |
| Time | Latitude | Longitude | Altitude | Speed | Heading |
|---|---|---|---|---|---|
| 2026-05-04 14:38 | 45.62727 | 8.71686 | 734 ft | 0 kts | 330° |
| 2026-05-04 14:44 | 45.62725 | 8.71687 | 734 ft | 1 kts | 330° |
| 2026-05-04 14:44 | 45.62712 | 8.71698 | 734 ft | 2 kts | 330° |
| 2026-05-04 14:44 | 45.62700 | 8.71709 | 734 ft | 2 kts | 330° |
| 2026-05-04 14:44 | 45.62687 | 8.71720 | 734 ft | 2 kts | 330° |
| 2026-05-04 14:45 | 45.62674 | 8.71730 | 734 ft | 2 kts | 330° |
| 2026-05-04 14:45 | 45.62661 | 8.71741 | 734 ft | 2 kts | 330° |
| 2026-05-04 14:45 | 45.62647 | 8.71745 | 733 ft | 2 kts | 20° |
| 2026-05-04 14:45 | 45.62636 | 8.71731 | 733 ft | 1 kts | 70° |
| 2026-05-04 14:46 | 45.62635 | 8.71723 | 733 ft | 1 kts | 87° |
| 2026-05-04 14:46 | 45.62635 | 8.71717 | 733 ft | 0 kts | 81° |
| 2026-05-04 14:48 | 45.62638 | 8.71747 | 733 ft | 6 kts | 82° |
| 2026-05-04 14:48 | 45.62669 | 8.71820 | 733 ft | 10 kts | 21° |
| 2026-05-04 14:49 | 45.62747 | 8.71810 | 735 ft | 11 kts | 350° |
| 2026-05-04 14:49 | 45.62830 | 8.71789 | 736 ft | 12 kts | 351° |
| 2026-05-04 14:49 | 45.62926 | 8.71765 | 737 ft | 15 kts | 350° |
| 2026-05-04 14:49 | 45.63045 | 8.71727 | 739 ft | 19 kts | 347° |
| 2026-05-04 14:50 | 45.63189 | 8.71687 | 742 ft | 21 kts | 351° |
| 2026-05-04 14:50 | 45.63291 | 8.71767 | 744 ft | 19 kts | 77° |
| 2026-05-04 14:50 | 45.63332 | 8.71935 | 744 ft | 17 kts | 30° |
| 2026-05-04 14:50 | 45.63453 | 8.71923 | 747 ft | 17 kts | 351° |
| 2026-05-04 14:51 | 45.63572 | 8.71894 | 750 ft | 17 kts | 349° |
| 2026-05-04 14:51 | 45.63690 | 8.71858 | 753 ft | 17 kts | 350° |
| 2026-05-04 14:51 | 45.63810 | 8.71828 | 756 ft | 19 kts | 355° |
| 2026-05-04 14:51 | 45.63904 | 8.71956 | 757 ft | 22 kts | 78° |
| 2026-05-04 14:52 | 45.63918 | 8.72181 | 755 ft | 23 kts | 87° |
| 2026-05-04 14:52 | 45.63941 | 8.72409 | 754 ft | 23 kts | 78° |
| 2026-05-04 14:52 | 45.63951 | 8.72637 | 752 ft | 22 kts | 111° |
| 2026-05-04 14:52 | 45.63959 | 8.72785 | 752 ft | 17 kts | 9° |
| 2026-05-04 14:53 | 45.64082 | 8.72754 | 754 ft | 18 kts | 346° |
| 2026-05-04 14:53 | 45.64214 | 8.72719 | 757 ft | 22 kts | 349° |
| 2026-05-04 14:53 | 45.64390 | 8.72679 | 760 ft | 27 kts | 357° |
| 2026-05-04 14:53 | 45.64570 | 8.72636 | 764 ft | 25 kts | 348° |
| 2026-05-04 14:54 | 45.64732 | 8.72589 | 767 ft | 23 kts | 351° |
| 2026-05-04 14:54 | 45.64870 | 8.72649 | 769 ft | 21 kts | 42° |
| 2026-05-04 14:54 | 45.64928 | 8.72820 | 769 ft | 20 kts | 136° |
| 2026-05-04 14:54 | 45.64788 | 8.72870 | 767 ft | 23 kts | 168° |
| 2026-05-04 14:55 | 45.64436 | 8.72963 | 760 ft | 88 kts | 169° |
| 2026-05-04 14:55 | 45.63604 | 8.73195 | 743 ft | 154 kts | 170° |
| 2026-05-04 14:55 | 45.62484 | 8.73508 | 1243 ft | 166 kts | 175° |
| 2026-05-04 14:55 | 45.61358 | 8.73525 | 2007 ft | 164 kts | 180° |
| 2026-05-04 14:56 | 45.60306 | 8.74060 | 2703 ft | 172 kts | 135° |
| 2026-05-04 14:56 | 45.59831 | 8.75644 | 3201 ft | 188 kts | 97° |
| 2026-05-04 14:56 | 45.59711 | 8.77591 | 3737 ft | 204 kts | 96° |
| 2026-05-04 14:56 | 45.59508 | 8.79677 | 4178 ft | 228 kts | 101° |
| 2026-05-04 14:57 | 45.59154 | 8.81971 | 4785 ft | 245 kts | 104° |
| 2026-05-04 14:57 | 45.58707 | 8.84315 | 5639 ft | 250 kts | 106° |
| 2026-05-04 14:57 | 45.58226 | 8.86656 | 6596 ft | 251 kts | 107° |
| 2026-05-04 14:57 | 45.57729 | 8.89021 | 7521 ft | 252 kts | 108° |
| 2026-05-04 14:58 | 45.57459 | 8.91532 | 8232 ft | 267 kts | 85° |
| 2026-05-04 14:58 | 45.58185 | 8.94032 | 8810 ft | 289 kts | 52° |
| 2026-05-04 14:58 | 45.59824 | 8.95651 | 9590 ft | 301 kts | 20° |
| 2026-05-04 14:58 | 45.61921 | 8.96128 | 10414 ft | 308 kts | 4° |
| 2026-05-04 14:59 | 45.64110 | 8.96260 | 10958 ft | 324 kts | 2° |
| 2026-05-04 14:59 | 45.66391 | 8.96408 | 11376 ft | 341 kts | 3° |
| 2026-05-04 14:59 | 45.71309 | 8.96974 | 12552 ft | 362 kts | 5° |
| 2026-05-04 15:00 | 45.73830 | 8.97344 | 13290 ft | 366 kts | 5° |
| 2026-05-04 15:00 | 45.76366 | 8.97737 | 13997 ft | 370 kts | 5° |
| 2026-05-04 15:00 | 45.78902 | 8.98142 | 14690 ft | 374 kts | 5° |
| 2026-05-04 15:01 | 45.84126 | 8.98993 | 16023 ft | 382 kts | 4° |
| 2026-05-04 15:01 | 45.86733 | 8.99420 | 16669 ft | 385 kts | 4° |
| 2026-05-04 15:01 | 45.89412 | 8.99862 | 17293 ft | 389 kts | 4° |
| 2026-05-04 15:01 | 45.92102 | 9.00305 | 17904 ft | 392 kts | 4° |
| 2026-05-04 15:02 | 45.94835 | 9.00755 | 18522 ft | 395 kts | 4° |
| 2026-05-04 15:02 | 45.97563 | 9.01203 | 19103 ft | 399 kts | 4° |
| 2026-05-04 15:02 | 46.00332 | 9.01658 | 19692 ft | 402 kts | 4° |
| 2026-05-04 15:02 | 46.03086 | 9.02113 | 20260 ft | 405 kts | 4° |
| 2026-05-04 15:03 | 46.05905 | 9.02581 | 20825 ft | 408 kts | 4° |
| 2026-05-04 15:03 | 46.08718 | 9.03049 | 21366 ft | 412 kts | 4° |
| 2026-05-04 15:03 | 46.11597 | 9.03528 | 21882 ft | 415 kts | 4° |
| 2026-05-04 15:03 | 46.14465 | 9.03900 | 22391 ft | 418 kts | 1° |
| 2026-05-04 15:04 | 46.17390 | 9.03969 | 22899 ft | 420 kts | 356° |
| 2026-05-04 15:04 | 46.20278 | 9.03731 | 23416 ft | 421 kts | 353° |
| 2026-05-04 15:04 | 46.23206 | 9.03350 | 23908 ft | 424 kts | 352° |
| 2026-05-04 15:04 | 46.26123 | 9.02943 | 24355 ft | 427 kts | 352° |
| 2026-05-04 15:05 | 46.29090 | 9.02527 | 24830 ft | 430 kts | 352° |
| 2026-05-04 15:05 | 46.32065 | 9.02119 | 25285 ft | 433 kts | 352° |
| 2026-05-04 15:05 | 46.35053 | 9.01714 | 25723 ft | 435 kts | 352° |
| 2026-05-04 15:05 | 46.38090 | 9.01306 | 26164 ft | 438 kts | 352° |
| 2026-05-04 15:06 | 46.41115 | 9.00900 | 26598 ft | 440 kts | 352° |
| 2026-05-04 15:06 | 46.44149 | 9.00490 | 27012 ft | 442 kts | 353° |
| 2026-05-04 15:06 | 46.47230 | 9.00073 | 27413 ft | 445 kts | 352° |
| 2026-05-04 15:07 | 46.53388 | 8.99242 | 28194 ft | 449 kts | 353° |
| 2026-05-04 15:07 | 46.56506 | 8.98823 | 28567 ft | 451 kts | 353° |
| 2026-05-04 15:07 | 46.59653 | 8.98401 | 28931 ft | 453 kts | 353° |
| 2026-05-04 15:07 | 46.62753 | 8.97985 | 29291 ft | 455 kts | 353° |
| 2026-05-04 15:08 | 46.65944 | 8.97555 | 29622 ft | 457 kts | 353° |
| 2026-05-04 15:08 | 46.69096 | 8.97129 | 29967 ft | 459 kts | 353° |
| 2026-05-04 15:08 | 46.72269 | 8.96698 | 30293 ft | 461 kts | 353° |
| 2026-05-04 15:08 | 46.75436 | 8.96268 | 30603 ft | 462 kts | 353° |
| 2026-05-04 15:09 | 46.78673 | 8.95831 | 30889 ft | 464 kts | 353° |
| 2026-05-04 15:09 | 46.81873 | 8.95396 | 31150 ft | 466 kts | 353° |
| 2026-05-04 15:09 | 46.85101 | 8.94956 | 31394 ft | 468 kts | 353° |
| 2026-05-04 15:10 | 46.91594 | 8.94068 | 31929 ft | 470 kts | 352° |
| 2026-05-04 15:10 | 46.94852 | 8.93623 | 32048 ft | 471 kts | 352° |
| 2026-05-04 15:11 | 47.04626 | 8.92280 | 32065 ft | 471 kts | 352° |
| 2026-05-04 15:11 | 47.11108 | 8.91388 | 32077 ft | 471 kts | 352° |
| 2026-05-04 15:12 | 47.17656 | 8.90484 | 32068 ft | 472 kts | 352° |
| 2026-05-04 15:12 | 47.24171 | 8.89581 | 32042 ft | 472 kts | 352° |
| 2026-05-04 15:13 | 47.30745 | 8.89093 | 32007 ft | 475 kts | 358° |
| 2026-05-04 15:13 | 47.37362 | 8.89459 | 31995 ft | 476 kts | 1° |
| 2026-05-04 15:14 | 47.43935 | 8.89966 | 31985 ft | 476 kts | 1° |
| 2026-05-04 15:14 | 47.50539 | 8.90464 | 31983 ft | 477 kts | 1° |
| 2026-05-04 15:15 | 47.57178 | 8.90952 | 31974 ft | 477 kts | 0° |
| 2026-05-04 15:15 | 47.63775 | 8.91433 | 31978 ft | 477 kts | 0° |
| 2026-05-04 15:16 | 47.73732 | 8.92297 | 31974 ft | 479 kts | 4° |
| 2026-05-04 15:17 | 47.83675 | 8.94146 | 31966 ft | 481 kts | 5° |
| 2026-05-04 15:17 | 47.93675 | 8.96003 | 31968 ft | 482 kts | 5° |
| 2026-05-04 15:18 | 48.00323 | 8.97212 | 31957 ft | 482 kts | 5° |
| 2026-05-04 15:19 | 48.10278 | 8.99019 | 31960 ft | 482 kts | 5° |
| 2026-05-04 15:19 | 48.20196 | 9.00823 | 31966 ft | 480 kts | 4° |
| 2026-05-04 15:20 | 48.26805 | 9.02030 | 31962 ft | 479 kts | 4° |
| 2026-05-04 15:20 | 48.33468 | 9.03247 | 31959 ft | 480 kts | 5° |
| 2026-05-04 15:21 | 48.40088 | 9.04462 | 31952 ft | 480 kts | 4° |
| 2026-05-04 15:21 | 48.46646 | 9.05671 | 31132 ft | 473 kts | 4° |
| 2026-05-04 15:22 | 48.49891 | 9.06269 | 30329 ft | 472 kts | 5° |
| 2026-05-04 15:22 | 48.53131 | 9.06866 | 29596 ft | 469 kts | 5° |
| 2026-05-04 15:22 | 48.59512 | 9.08047 | 28296 ft | 460 kts | 5° |
| 2026-05-04 15:23 | 48.62648 | 9.08629 | 27617 ft | 456 kts | 5° |
| 2026-05-04 15:23 | 48.65776 | 9.09209 | 26938 ft | 452 kts | 5° |
| 2026-05-04 15:23 | 48.68879 | 9.09786 | 26259 ft | 448 kts | 5° |
| 2026-05-04 15:23 | 48.71936 | 9.10355 | 25590 ft | 444 kts | 5° |
| 2026-05-04 15:24 | 48.77995 | 9.11483 | 24246 ft | 437 kts | 5° |
| 2026-05-04 15:24 | 48.83939 | 9.12592 | 22922 ft | 430 kts | 5° |
| 2026-05-04 15:25 | 48.86886 | 9.13142 | 22278 ft | 426 kts | 5° |
| 2026-05-04 15:25 | 48.89833 | 9.13694 | 21636 ft | 423 kts | 5° |
| 2026-05-04 15:25 | 48.92699 | 9.14231 | 21001 ft | 420 kts | 5° |
| 2026-05-04 15:26 | 48.98454 | 9.15313 | 19732 ft | 415 kts | 6° |
| 2026-05-04 15:26 | 49.01291 | 9.15847 | 19100 ft | 412 kts | 6° |
| 2026-05-04 15:26 | 49.06961 | 9.16741 | 17821 ft | 406 kts | 0° |
| 2026-05-04 15:27 | 49.09759 | 9.16817 | 17209 ft | 404 kts | 359° |
| 2026-05-04 15:27 | 49.15304 | 9.16825 | 15965 ft | 399 kts | 359° |
| 2026-05-04 15:28 | 49.20815 | 9.16788 | 14721 ft | 395 kts | 359° |
| 2026-05-04 15:28 | 49.23567 | 9.16755 | 14096 ft | 393 kts | 359° |
| 2026-05-04 15:28 | 49.28962 | 9.16670 | 12870 ft | 388 kts | 359° |
| 2026-05-04 15:29 | 49.31633 | 9.16620 | 12260 ft | 385 kts | 359° |
| 2026-05-04 15:30 | 49.41932 | 9.16419 | 10942 ft | 340 kts | 359° |
| 2026-05-04 15:30 | 49.48550 | 9.16337 | 10947 ft | 309 kts | 359° |
| 2026-05-04 15:31 | 49.52844 | 9.16280 | 10946 ft | 309 kts | 359° |
| 2026-05-04 15:31 | 49.54971 | 9.16246 | 10945 ft | 309 kts | 359° |
| 2026-05-04 15:32 | 49.61159 | 9.18223 | 10786 ft | 304 kts | 23° |
| 2026-05-04 15:32 | 49.65059 | 9.20779 | 9999 ft | 302 kts | 23° |
| 2026-05-04 15:33 | 49.68908 | 9.23338 | 9935 ft | 304 kts | 24° |
| 2026-05-04 15:34 | 49.74529 | 9.27093 | 9926 ft | 273 kts | 24° |
| 2026-05-04 15:34 | 49.76266 | 9.28250 | 9933 ft | 271 kts | 24° |
| 2026-05-04 15:34 | 49.79718 | 9.30549 | 9940 ft | 270 kts | 24° |
| 2026-05-04 15:35 | 49.83163 | 9.32835 | 9943 ft | 270 kts | 24° |
| 2026-05-04 15:35 | 49.84893 | 9.33979 | 9940 ft | 270 kts | 23° |
| 2026-05-04 15:35 | 49.86604 | 9.35113 | 9941 ft | 270 kts | 23° |
| 2026-05-04 15:36 | 49.90065 | 9.37421 | 9944 ft | 270 kts | 23° |
| 2026-05-04 15:36 | 49.91788 | 9.38579 | 9945 ft | 270 kts | 23° |
| 2026-05-04 15:36 | 49.93486 | 9.39723 | 9946 ft | 270 kts | 23° |
| 2026-05-04 15:37 | 49.95210 | 9.40886 | 9947 ft | 270 kts | 23° |
| 2026-05-04 15:37 | 49.96925 | 9.42044 | 9950 ft | 270 kts | 23° |
| 2026-05-04 15:37 | 49.98652 | 9.43213 | 9952 ft | 269 kts | 23° |
| 2026-05-04 15:37 | 50.00370 | 9.44377 | 9953 ft | 270 kts | 23° |
| 2026-05-04 15:38 | 50.02162 | 9.45174 | 9932 ft | 268 kts | 1° |
| 2026-05-04 15:38 | 50.03955 | 9.44698 | 9699 ft | 262 kts | 332° |
| 2026-05-04 15:38 | 50.05351 | 9.43018 | 9322 ft | 257 kts | 304° |
| 2026-05-04 15:38 | 50.06300 | 9.40682 | 9015 ft | 254 kts | 295° |
| 2026-05-04 15:39 | 50.07111 | 9.38278 | 8714 ft | 252 kts | 294° |
| 2026-05-04 15:39 | 50.07894 | 9.35849 | 8422 ft | 250 kts | 294° |
| 2026-05-04 15:39 | 50.09414 | 9.31027 | 7841 ft | 247 kts | 294° |
| 2026-05-04 15:40 | 50.10160 | 9.28625 | 7541 ft | 246 kts | 294° |
| 2026-05-04 15:40 | 50.10904 | 9.26216 | 7239 ft | 245 kts | 294° |
| 2026-05-04 15:40 | 50.11628 | 9.23844 | 6941 ft | 244 kts | 294° |
| 2026-05-04 15:40 | 50.12342 | 9.21459 | 6643 ft | 243 kts | 292° |
| 2026-05-04 15:41 | 50.12962 | 9.19040 | 6363 ft | 241 kts | 288° |
| 2026-05-04 15:41 | 50.13448 | 9.16572 | 6088 ft | 239 kts | 284° |
| 2026-05-04 15:41 | 50.13878 | 9.14086 | 5805 ft | 237 kts | 284° |
| 2026-05-04 15:41 | 50.14298 | 9.11598 | 5522 ft | 236 kts | 283° |
| 2026-05-04 15:42 | 50.14710 | 9.09140 | 5235 ft | 235 kts | 283° |
| 2026-05-04 15:42 | 50.14901 | 9.06637 | 4932 ft | 234 kts | 267° |
| 2026-05-04 15:42 | 50.14667 | 9.04145 | 4646 ft | 233 kts | 255° |
| 2026-05-04 15:42 | 50.14224 | 9.01740 | 4367 ft | 231 kts | 253° |
| 2026-05-04 15:43 | 50.13745 | 8.99359 | 4083 ft | 230 kts | 251° |
| 2026-05-04 15:43 | 50.13231 | 8.97001 | 3963 ft | 229 kts | 250° |
| 2026-05-04 15:43 | 50.12687 | 8.94642 | 3960 ft | 231 kts | 250° |
| 2026-05-04 15:43 | 50.12134 | 8.92319 | 3960 ft | 230 kts | 249° |
| 2026-05-04 15:44 | 50.11568 | 8.89984 | 3963 ft | 230 kts | 249° |
| 2026-05-04 15:44 | 50.11005 | 8.87675 | 3952 ft | 224 kts | 250° |
| 2026-05-04 15:44 | 50.10465 | 8.85464 | 3835 ft | 215 kts | 250° |
| 2026-05-04 15:44 | 50.09932 | 8.83275 | 3564 ft | 215 kts | 250° |
| 2026-05-04 15:45 | 50.09419 | 8.81162 | 3283 ft | 204 kts | 250° |
| 2026-05-04 15:45 | 50.08932 | 8.79157 | 3060 ft | 190 kts | 250° |
| 2026-05-04 15:45 | 50.08485 | 8.77311 | 2869 ft | 175 kts | 250° |
| 2026-05-04 15:45 | 50.08072 | 8.75601 | 2613 ft | 165 kts | 250° |
| 2026-05-04 15:46 | 50.07687 | 8.74002 | 2382 ft | 153 kts | 250° |
| 2026-05-04 15:46 | 50.07348 | 8.72498 | 2143 ft | 142 kts | 257° |
| 2026-05-04 15:46 | 50.07160 | 8.71069 | 1941 ft | 130 kts | 261° |
| 2026-05-04 15:46 | 50.06958 | 8.69700 | 1784 ft | 129 kts | 256° |
| 2026-05-04 15:47 | 50.06728 | 8.68380 | 1627 ft | 125 kts | 258° |
| 2026-05-04 15:47 | 50.06480 | 8.67034 | 1493 ft | 131 kts | 251° |
| 2026-05-04 15:47 | 50.06170 | 8.65707 | 1378 ft | 134 kts | 250° |
| 2026-05-04 15:47 | 50.05848 | 8.64349 | 1201 ft | 134 kts | 251° |
| 2026-05-04 15:48 | 50.05523 | 8.62991 | 964 ft | 132 kts | 250° |
| 2026-05-04 15:48 | 50.05218 | 8.61674 | 791 ft | 129 kts | 251° |
| 2026-05-04 15:48 | 50.04608 | 8.59086 | 459 ft | 125 kts | 249° |
| 2026-05-04 15:49 | 50.04311 | 8.57859 | 375 ft | 115 kts | 252° |
| 2026-05-04 15:49 | 50.04089 | 8.56923 | 375 ft | 67 kts | 250° |
| 2026-05-04 15:49 | 50.03990 | 8.56462 | 374 ft | 29 kts | 270° |
| 2026-05-04 15:49 | 50.04009 | 8.56231 | 374 ft | 0 kts | 279° |
| 2026-05-04 15:50 | 50.04012 | 8.56209 | 374 ft | 6 kts | 281° |
| 2026-05-04 15:50 | 50.04072 | 8.56130 | 374 ft | 17 kts | 11° |
| 2026-05-04 15:51 | 50.04130 | 8.56287 | 374 ft | 17 kts | 73° |
| 2026-05-04 15:51 | 50.04182 | 8.56511 | 375 ft | 27 kts | 70° |
| 2026-05-04 15:51 | 50.04254 | 8.56785 | 375 ft | 23 kts | 39° |
| 2026-05-04 15:51 | 50.04408 | 8.56842 | 375 ft | 23 kts | 5° |
| 2026-05-04 15:52 | 50.04525 | 8.56815 | 375 ft | 13 kts | 294° |
| 2026-05-04 15:52 | 50.04544 | 8.56740 | 375 ft | 2 kts | 292° |
| 2026-05-04 15:52 | 50.04544 | 8.56737 | 375 ft | 0 kts | 292° |